Data for 11/26/2015

Time Sea-Level Adjusted Pressure Absolute Pressure Temperature Relative Humidity Dew Point   
(mb) (inHg) (mb) (inHg) (C) (F) (%) (C) (F)
00:05 1023 30.21 852 25.16 -11.5 11.3 76 -14.9 5.1
00:10 1023 30.21 852 25.16 -11.5 11.2 76 -15 5
00:15 1023 30.21 852 25.16 -11.6 11.1 76 -15 5
00:20 1023 30.21 852 25.16 -11.8 10.9 77 -15.1 4.8
00:25 1023 30.21 852 25.16 -11.9 10.6 77 -15.1 4.8
00:30 1023 30.21 852 25.16 -12 10.3 77 -15.3 4.5
00:35 1023 30.21 852 25.16 -12 10.4 77 -15.2 4.6
00:40 1023 30.21 852 25.16 -12.2 10.1 78 -15.2 4.6
00:45 1023 30.21 852 25.16 -12.3 10 78 -15.4 4.3
00:50 1023 30.21 852 25.16 -12.2 10.1 77 -15.4 4.3
00:55 1023 30.21 852 25.16 -12.1 10.3 76 -15.4 4.3
01:00 1023 30.21 852 25.16 -11.9 10.5 76 -15.4 4.2
01:05 1023 30.21 852 25.16 -12 10.5 76 -15.4 4.3
01:10 1023 30.21 852 25.16 -12.1 10.2 76 -15.6 4
01:15 1023 30.21 852 25.16 -12.2 10 76 -15.6 3.9
01:20 1023 30.21 852 25.16 -12.2 10 76 -15.6 3.9
01:25 1023 30.21 852 25.16 -12.1 10.2 78 -15.2 4.7
01:30 1023 30.21 852 25.16 -12.2 10.1 79 -15.1 4.8
01:35 1023 30.21 853 25.19 -12.3 9.8 79 -15.3 4.5
01:40 1023 30.21 853 25.19 -12.4 9.6 79 -15.4 4.2
01:45 1023 30.21 853 25.19 -12.3 9.8 79 -15.2 4.6
01:50 1024 30.24 853 25.19 -12.1 10.3 80 -14.9 5.2
01:55 1024 30.24 853 25.19 -11.9 10.6 83 -14.2 6.5
02:00 1024 30.24 853 25.19 -11.9 10.5 80 -14.7 5.5
02:05 1024 30.24 853 25.19 -12.1 10.1 80 -14.9 5.2
02:10 1024 30.24 853 25.19 -12.3 9.8 80 -15.1 4.9
02:15 1024 30.24 853 25.19 -12.4 9.7 80 -15.1 4.8
02:20 1024 30.24 853 25.19 -12.4 9.8 80 -15.1 4.8
02:25 1024 30.24 853 25.19 -12.4 9.8 80 -15.2 4.7
02:30 1024 30.24 853 25.19 -12.4 9.6 79 -15.3 4.5
02:35 1024 30.24 853 25.19 -12.5 9.4 80 -15.3 4.4
02:40 1024 30.24 853 25.19 -12.5 9.5 79 -15.4 4.3
02:45 1024 30.24 853 25.19 -12.6 9.2 84 -14.8 5.3
02:50 1024 30.24 853 25.19 -12.7 9.1 83 -15.1 4.8
02:55 1024 30.24 853 25.19 -12.8 8.9 83 -15.2 4.7
03:00 1024 30.24 854 25.22 -13 8.7 84 -15.1 4.8
03:05 1024 30.24 854 25.22 -13 8.6 84 -15.1 4.8
03:10 1024 30.24 854 25.22 -13.1 8.5 84 -15.2 4.6
03:15 1025 30.27 854 25.22 -13.3 8.1 85 -15.3 4.4
03:20 1025 30.27 854 25.22 -13.4 7.9 85 -15.4 4.3
03:25 1025 30.27 854 25.22 -13.5 7.8 85 -15.5 4.1
03:30 1025 30.27 854 25.22 -13.7 7.3 85 -15.8 3.6
03:35 1025 30.27 854 25.22 -13.7 7.3 86 -15.6 3.9
03:40 1025 30.27 854 25.22 -13.7 7.3 86 -15.7 3.8
03:45 1025 30.27 854 25.22 -13.8 7.1 86 -15.7 3.7
03:50 1025 30.27 854 25.22 -13.7 7.3 87 -15.4 4.3
03:55 1025 30.27 854 25.22 -13.5 7.7 86 -15.3 4.4
04:00 1025 30.27 854 25.22 -13.6 7.6 87 -15.3 4.4
04:05 1025 30.27 854 25.22 -13.6 7.6 87 -15.2 4.6
04:10 1025 30.27 854 25.22 -13.5 7.8 87 -15.1 4.7
04:15 1025 30.27 854 25.22 -13.4 7.9 88 -15 5.1
04:20 1025 30.27 854 25.22 -13.5 7.8 87 -15.2 4.6
04:25 1025 30.27 854 25.22 -13.5 7.7 87 -15.2 4.6
04:30 1025 30.27 854 25.22 -13.5 7.6 87 -15.3 4.5
04:35 1025 30.27 854 25.22 -13.6 7.5 85 -15.6 3.8
04:40 1025 30.27 854 25.22 -14.4 6.2 83 -16.6 2.1
04:45 1025 30.27 854 25.22 -15.2 4.6 85 -17.2 1.1
04:50 1025 30.27 854 25.22 -15.4 4.2 85 -17.4 0.7
04:55 1025 30.27 854 25.22 -15.7 3.8 87 -17.4 0.7
05:00 1025 30.27 854 25.22 -15.3 4.5 84 -17.3 0.8
05:05 1025 30.27 854 25.22 -15.7 3.8 82 -18.1 -0.6
05:10 1025 30.27 855 25.25 -16.2 2.8 81 -18.7 -1.7
05:15 1025 30.27 855 25.25 -16.5 2.2 82 -19 -2.1
05:20 1026 30.3 855 25.25 -16.5 2.4 83 -18.8 -1.8
05:25 1026 30.3 855 25.25 -16.2 2.8 83 -18.5 -1.3
05:30 1026 30.3 855 25.25 -15.9 3.3 81 -18.4 -1.2
05:35 1026 30.3 855 25.25 -16 3.2 82 -18.5 -1.2
05:40 1026 30.3 855 25.25 -16 3.2 81 -18.5 -1.2
05:45 1026 30.3 855 25.25 -16.1 2.9 81 -18.8 -1.8
05:50 1026 30.3 855 25.25 -16.4 2.6 82 -18.8 -1.9
05:55 1026 30.3 855 25.25 -16.4 2.5 81 -18.9 -2
06:00 1026 30.3 855 25.25 -16.5 2.3 81 -19 -2.3
06:05 1026 30.3 855 25.25 -16.5 2.3 84 -18.6 -1.5
06:10 1026 30.3 855 25.25 -16.3 2.7 84 -18.3 -1
06:15 1026 30.3 855 25.25 -16.3 2.7 85 -18.2 -0.8
06:20 1026 30.3 855 25.25 -16.2 2.8 86 -18.1 -0.5
06:25 1026 30.3 855 25.25 -16.2 2.9 86 -18 -0.4
06:30 1026 30.3 856 25.28 -16.2 2.8 85 -18.1 -0.6
06:35 1026 30.3 856 25.28 -16.3 2.7 85 -18.2 -0.8
06:40 1027 30.33 856 25.28 -16.3 2.6 83 -18.5 -1.3
06:45 1027 30.33 856 25.28 -16.4 2.6 82 -18.7 -1.7
06:50 1027 30.33 856 25.28 -16.3 2.6 81 -18.8 -1.8
06:55 1027 30.33 856 25.28 -16.2 2.9 81 -18.8 -1.8
07:00 1027 30.33 856 25.28 -16.1 3 81 -18.7 -1.7
07:05 1027 30.33 856 25.28 -16.1 3.1 80 -18.7 -1.7
07:10 1027 30.33 856 25.28 -16.1 3.1 80 -18.8 -1.8
07:15 1027 30.33 856 25.28 -16.2 2.9 80 -18.9 -2
07:20 1027 30.33 856 25.28 -16.5 2.3 80 -19.2 -2.6
07:25 1027 30.33 856 25.28 -16.7 1.9 81 -19.2 -2.6
07:30 1027 30.33 856 25.28 -16.5 2.2 82 -19 -2.1
07:35 1027 30.33 856 25.28 -16.2 2.9 80 -18.8 -1.9
07:40 1027 30.33 856 25.28 -16.1 3.1 80 -18.8 -1.8
07:45 1027 30.33 856 25.28 -15.8 3.5 78 -18.8 -1.9
07:50 1027 30.33 856 25.28 -16 3.1 79 -18.8 -1.9
07:55 1027 30.33 856 25.28 -16.1 3 80 -18.8 -1.8
08:00 1027 30.33 856 25.28 -16.1 3.1 78 -19.1 -2.4
08:05 1027 30.33 856 25.28 -16.2 2.9 78 -19.2 -2.6
08:10 1027 30.33 856 25.28 -16.4 2.4 79 -19.3 -2.8
08:15 1027 30.33 856 25.28 -16.6 2.1 80 -19.3 -2.7
08:20 1027 30.33 856 25.28 -16.6 2.2 80 -19.2 -2.6
08:25 1027 30.33 856 25.28 -17 1.5 80 -19.6 -3.2
08:30 1027 30.33 856 25.28 -17.1 1.3 81 -19.6 -3.4
08:35 1027 30.33 856 25.28 -16.7 1.9 80 -19.4 -2.9
08:40 1027 30.33 857 25.31 -16.7 2 79 -19.5 -3.1
08:45 1027 30.33 857 25.31 -16.8 1.7 80 -19.6 -3.2
08:50 1027 30.33 857 25.31 -16.9 1.6 79 -19.7 -3.5
08:55 1028 30.36 857 25.31 -17 1.5 78 -19.9 -3.8
09:00 1028 30.36 857 25.31 -17 1.5 79 -19.8 -3.7
09:05 1028 30.36 857 25.31 -16.8 1.9 78 -19.8 -3.7
09:10 1028 30.36 857 25.31 -16.8 1.7 78 -19.8 -3.6
09:15 1028 30.36 857 25.31 -16.8 1.7 78 -19.7 -3.5
09:20 1028 30.36 857 25.31 -16.5 2.4 77 -19.6 -3.3
09:25 1028 30.36 857 25.31 -16.1 3 75 -19.5 -3.1
09:30 1028 30.36 857 25.31 -16.2 2.9 77 -19.4 -2.9
09:35 1028 30.36 857 25.31 -15.5 4 76 -18.9 -2
09:40 1028 30.36 857 25.31 -15 4.9 73 -18.8 -1.8
09:45 1028 30.36 857 25.31 -14.9 5.1 73 -18.8 -1.8
09:50 1028 30.36 857 25.31 -14.7 5.5 73 -18.6 -1.4
09:55 1028 30.36 857 25.31 -14.4 6.2 71 -18.5 -1.2
10:00 1028 30.36 857 25.31 -14.7 5.5 73 -18.6 -1.4
10:05 1028 30.36 857 25.31 -14.4 6 71 -18.6 -1.4
10:10 1028 30.36 857 25.31 -14 6.8 69 -18.5 -1.4
10:15 1028 30.36 857 25.31 -14.5 5.9 72 -18.5 -1.4
10:20 1028 30.36 857 25.31 -14.3 6.2 71 -18.6 -1.4
10:25 1028 30.36 857 25.31 -14 6.9 71 -18.2 -0.8
10:30 1028 30.36 857 25.31 -13.4 7.9 68 -18.1 -0.6
10:35 1028 30.36 857 25.31 -13.5 7.6 71 -17.8 -0
10:40 1028 30.36 858 25.34 -13.3 8 69 -17.9 -0.3
10:45 1028 30.36 858 25.34 -12.9 8.8 69 -17.4 0.7
10:50 1028 30.36 858 25.34 -12 10.4 66 -17 1.3
10:55 1028 30.36 858 25.34 -11.1 12 63 -16.8 1.7
11:00 1028 30.36 858 25.34 -10.9 12.4 63 -16.7 1.9
11:05 1028 30.36 858 25.34 -10.7 12.7 64 -16.4 2.6
11:10 1029 30.39 858 25.34 -10.5 13.2 63 -16.2 2.8
11:15 1029 30.39 858 25.34 -10.3 13.6 63 -16 3.1
11:20 1029 30.39 858 25.34 -9.9 14.1 62 -15.9 3.4
11:25 1029 30.39 858 25.34 -9.9 14.1 64 -15.5 4
11:30 1029 30.39 858 25.34 -10.3 13.5 64 -15.8 3.5
11:35 1029 30.39 858 25.34 -9.8 14.3 63 -15.6 3.9
11:40 1029 30.39 858 25.34 -9.5 14.9 61 -15.7 3.8
11:45 1029 30.39 858 25.34 -9.6 14.8 63 -15.4 4.2
11:50 1029 30.39 858 25.34 -9.5 15 62 -15.5 4.1
11:55 1029 30.39 858 25.34 -9.2 15.4 60 -15.6 3.9
12:00 1029 30.39 858 25.34 -8.8 16.3 60 -15.2 4.6
12:05 1029 30.39 858 25.34 -8.4 17 57 -15.4 4.3
12:10 1029 30.39 858 25.34 -8.5 16.7 57 -15.6 3.9
12:15 1029 30.39 858 25.34 -8.4 16.9 57 -15.5 4.1
12:20 1029 30.39 858 25.34 -8.5 16.6 59 -15.3 4.5
12:25 1029 30.39 858 25.34 -8.5 16.7 56 -15.7 3.8
12:30 1029 30.39 858 25.34 -8.2 17.3 56 -15.5 4.1
12:35 1029 30.39 858 25.34 -8 17.7 56 -15.3 4.4
12:40 1029 30.39 858 25.34 -7.7 18.1 54 -15.5 4.1
12:45 1029 30.39 858 25.34 -8 17.6 56 -15.3 4.4
12:50 1029 30.39 858 25.34 -8.3 17.1 57 -15.4 4.3
12:55 1029 30.39 858 25.34 -8.3 17.1 57 -15.3 4.5
13:00 1029 30.39 858 25.34 -8.1 17.4 56 -15.4 4.2
13:05 1029 30.39 858 25.34 -7.5 18.5 54 -15.3 4.4
13:10 1029 30.39 858 25.34 -8.2 17.2 58 -15.1 4.9
13:15 1029 30.39 858 25.34 -8.3 17 58 -15.1 4.8
13:20 1028 30.36 858 25.34 -8.1 17.4 57 -15.2 4.7
13:25 1028 30.36 858 25.34 -7.8 18 54 -15.5 4
13:30 1028 30.36 858 25.34 -7.7 18.2 53 -15.7 3.8
13:35 1028 30.36 858 25.34 -7.7 18.2 54 -15.5 4.1
13:40 1028 30.36 858 25.34 -7.9 17.8 56 -15.1 4.7
13:45 1028 30.36 858 25.34 -7.3 18.8 52 -15.7 3.7
13:50 1028 30.36 857 25.31 -7.2 19 54 -14.9 5.1
13:55 1028 30.36 857 25.31 -8 17.6 57 -15.1 4.7
14:00 1028 30.36 857 25.31 -8 17.7 54 -15.8 3.5
14:05 1028 30.36 857 25.31 -8.4 16.9 55 -15.8 3.5
14:10 1028 30.36 857 25.31 -8.4 16.8 57 -15.5 4
14:15 1028 30.36 857 25.31 -8.3 17.1 55 -15.8 3.6
14:20 1028 30.36 857 25.31 -8.2 17.3 56 -15.5 4.1
14:25 1028 30.36 857 25.31 -8 17.7 55 -15.5 4.1
14:30 1028 30.36 857 25.31 -7.8 18 54 -15.5 4.2
14:35 1028 30.36 857 25.31 -7.8 18.1 53 -15.7 3.7
14:40 1028 30.36 857 25.31 -7.7 18.1 54 -15.5 4
14:45 1028 30.36 857 25.31 -7.5 18.5 53 -15.6 4
14:50 1028 30.36 857 25.31 -8 17.5 53 -15.9 3.3
14:55 1028 30.36 857 25.31 -7.8 18 52 -16 3.2
15:00 1028 30.36 857 25.31 -7.6 18.4 51 -16.1 3.1
15:05 1028 30.36 857 25.31 -7.6 18.4 51 -16 3.1
15:10 1028 30.36 857 25.31 -7.7 18.1 51 -16.2 2.8
15:15 1028 30.36 857 25.31 -7.3 18.8 50 -16.1 3
15:20 1028 30.36 857 25.31 -7.4 18.7 51 -16 3.2
15:25 1028 30.36 857 25.31 -7.7 18.2 53 -15.8 3.6
15:30 1028 30.36 857 25.31 -7.4 18.7 51 -15.9 3.4
15:35 1028 30.36 857 25.31 -7.1 19.2 50 -15.8 3.6
15:40 1028 30.36 857 25.31 -7.4 18.6 52 -15.7 3.7
15:45 1028 30.36 857 25.31 -7.7 18.2 52 -15.9 3.4
15:50 1028 30.36 857 25.31 -7.4 18.7 51 -15.8 3.5
15:55 1028 30.36 857 25.31 -7.5 18.4 51 -16 3.1
16:00 1028 30.36 857 25.31 -7.6 18.3 51 -16.2 2.9
16:05 1028 30.36 857 25.31 -8 17.5 52 -16.3 2.7
16:10 1028 30.36 857 25.31 -8.1 17.5 52 -16.2 2.8
16:15 1028 30.36 858 25.34 -8.4 16.9 55 -15.8 3.5
16:20 1028 30.36 858 25.34 -9.1 15.6 57 -16.1 3
16:25 1028 30.36 858 25.34 -9.5 15 58 -16.4 2.5
16:30 1029 30.39 858 25.34 -9.1 15.7 56 -16.2 2.8
16:35 1029 30.39 858 25.34 -8.4 16.9 54 -16.2 2.8
16:40 1029 30.39 858 25.34 -8.6 16.5 55 -16 3.1
16:45 1029 30.39 858 25.34 -8.7 16.3 54 -16.4 2.5
16:50 1029 30.39 858 25.34 -8.5 16.7 54 -16.3 2.6
16:55 1029 30.39 858 25.34 -8.6 16.6 55 -16 3.2
17:00 1029 30.39 858 25.34 -8.8 16.1 55 -16.3 2.7
17:05 1029 30.39 858 25.34 -8.8 16.2 56 -16.1 3
17:10 1029 30.39 858 25.34 -8.7 16.3 54 -16.3 2.6
17:15 1029 30.39 858 25.34 -8.7 16.4 55 -16.3 2.7
17:20 1029 30.39 858 25.34 -8.6 16.4 55 -16.2 2.8
17:25 1029 30.39 858 25.34 -8.7 16.4 55 -16.1 3
17:30 1029 30.39 858 25.34 -8.8 16.3 56 -16.1 3
17:35 1029 30.39 858 25.34 -8.9 16 56 -16.1 3
17:40 1029 30.39 858 25.34 -9.2 15.4 58 -16 3.2
17:45 1029 30.39 858 25.34 -9.7 14.6 60 -16.1 3.1
17:50 1029 30.39 858 25.34 -9.8 14.4 60 -16.1 3
17:55 1029 30.39 858 25.34 -10.2 13.7 62 -16 3.1
18:00 1029 30.39 858 25.34 -10.5 13.1 64 -16.2 2.9
18:05 1029 30.39 858 25.34 -10.7 12.8 64 -16.2 2.9
18:10 1029 30.39 858 25.34 -10.8 12.6 66 -16 3.2
18:15 1029 30.39 858 25.34 -10.7 12.7 66 -15.9 3.3
18:20 1029 30.39 858 25.34 -11 12.2 67 -16 3.3
18:25 1029 30.39 858 25.34 -11.5 11.4 69 -16.1 3
18:30 1029 30.39 858 25.34 -11.9 10.6 70 -16.3 2.7
18:35 1029 30.39 858 25.34 -12 10.5 70 -16.4 2.4
18:40 1029 30.39 858 25.34 -11.9 10.7 69 -16.5 2.3
18:45 1029 30.39 859 25.37 -12.1 10.3 70 -16.5 2.3
18:50 1029 30.39 858 25.34 -12.5 9.5 71 -16.7 2
18:55 1029 30.39 858 25.34 -12.9 8.7 72 -17 1.5
19:00 1029 30.39 858 25.34 -13.3 8.1 73 -17.1 1.2
19:05 1029 30.39 858 25.34 -13.4 7.9 74 -17 1.4
19:10 1029 30.39 858 25.34 -13.1 8.4 72 -17.1 1.2
19:15 1029 30.39 858 25.34 -13.2 8.3 71 -17.3 0.8
19:20 1029 30.39 858 25.34 -13.4 7.9 73 -17.3 0.9
19:25 1029 30.39 858 25.34 -13.3 8.1 72 -17.3 0.8
19:30 1029 30.39 858 25.34 -13 8.5 72 -17.2 1.1
19:35 1029 30.39 858 25.34 -13.1 8.5 72 -17.1 1.2
19:40 1029 30.39 858 25.34 -12.9 8.7 71 -17.1 1.2
19:45 1029 30.39 858 25.34 -13.1 8.4 72 -17.1 1.1
19:50 1029 30.39 858 25.34 -13.3 8.1 73 -17.1 1.2
19:55 1029 30.39 859 25.37 -12.9 8.8 71 -17.1 1.3
20:00 1029 30.39 859 25.37 -12.9 8.8 71 -17 1.3
20:05 1029 30.39 858 25.34 -13.1 8.4 72 -17.1 1.2
20:10 1029 30.39 858 25.34 -13.3 8.2 73 -17.1 1.2
20:15 1029 30.39 858 25.34 -13.2 8.3 72 -17.2 1.1
20:20 1029 30.39 858 25.34 -13.3 8.1 73 -17.2 1.1
20:25 1029 30.39 858 25.34 -13.3 8.1 74 -17 1.4
20:30 1029 30.39 858 25.34 -13.2 8.2 73 -17.1 1.2
20:35 1029 30.39 858 25.34 -13 8.5 73 -17 1.5
20:40 1029 30.39 858 25.34 -12.9 8.7 73 -16.9 1.6
20:45 1029 30.39 858 25.34 -12.9 8.8 72 -16.9 1.6
20:50 1029 30.39 858 25.34 -12.8 8.9 71 -17 1.5
20:55 1029 30.39 858 25.34 -13 8.7 72 -17 1.5
21:00 1029 30.39 858 25.34 -13 8.6 72 -17.1 1.3
21:05 1029 30.39 858 25.34 -13 8.6 72 -17 1.3
21:10 1029 30.39 858 25.34 -13 8.5 72 -17.1 1.3
21:15 1029 30.39 858 25.34 -13.3 8.1 73 -17.2 1.1
21:20 1029 30.39 858 25.34 -13.4 7.9 74 -17.2 1.1
21:25 1029 30.39 858 25.34 -13.4 7.8 74 -17.1 1.1
21:30 1029 30.39 858 25.34 -13.4 7.9 74 -17.1 1.2
21:35 1029 30.39 858 25.34 -13.3 8.1 73 -17.1 1.3
21:40 1029 30.39 858 25.34 -13.4 8 74 -17.1 1.3
21:45 1029 30.39 858 25.34 -13.4 7.8 74 -17.1 1.3
21:50 1029 30.39 858 25.34 -13.3 8 73 -17.1 1.2
21:55 1029 30.39 858 25.34 -13.3 8.1 74 -17 1.3
22:00 1029 30.39 858 25.34 -13.2 8.2 74 -17 1.4
22:05 1029 30.39 858 25.34 -13.4 8 73 -17.2 1.1
22:10 1029 30.39 858 25.34 -13.6 7.6 74 -17.2 1
22:15 1029 30.39 858 25.34 -13.7 7.4 74 -17.3 0.8
22:20 1029 30.39 858 25.34 -14 6.8 74 -17.6 0.2
22:25 1029 30.39 858 25.34 -14.4 6.1 77 -17.5 0.4
22:30 1029 30.39 858 25.34 -13.9 6.9 76 -17.2 1
22:35 1029 30.39 858 25.34 -13.7 7.3 76 -17 1.3
22:40 1029 30.39 858 25.34 -13.4 7.9 76 -16.8 1.7
22:45 1029 30.39 858 25.34 -13 8.7 73 -16.9 1.6
22:50 1029 30.39 858 25.34 -13.3 8 72 -17.3 0.8
22:55 1029 30.39 858 25.34 -14.1 6.6 76 -17.5 0.5
23:00 1029 30.39 858 25.34 -14.2 6.5 75 -17.7 0.1
23:05 1029 30.39 858 25.34 -14.4 6.2 78 -17.4 0.7
23:10 1029 30.39 858 25.34 -14 6.7 78 -17 1.3
23:15 1029 30.39 858 25.34 -13.8 7.1 76 -17.2 1.1
23:20 1029 30.39 858 25.34 -13.9 7.1 75 -17.4 0.6
23:25 1029 30.39 859 25.37 -14.4 6 76 -17.7 0.1
23:30 1029 30.39 859 25.37 -14.6 5.8 76 -17.9 -0.1
23:35 1029 30.39 859 25.37 -14.7 5.5 77 -17.9 -0.3
23:40 1029 30.39 859 25.37 -14.7 5.6 77 -17.9 -0.2
23:45 1029 30.39 859 25.37 -14.5 5.9 76 -17.9 -0.1
23:50 1029 30.39 859 25.37 -14.5 5.9 76 -17.9 -0.2
23:55 1029 30.39 859 25.37 -14.5 5.8 77 -17.8 -0
24:00 1029 30.39 859 25.37 -14.5 5.9 77 -17.7 0.1